Time;durP1;ratioP1;P1;durP2;ratioP2;P2;SDS_P1;SDS_P2;PMS_P1;PMS_P2;Temp;Humidity;BMP_temperature;BMP_pressure;BME280_temperature;BME280_humidity;BME280_pressure;Samples;Min_cycle;Max_cycle;Signal;HPM_P1;HPM_P2
2021/10/20 00:00:39;;;;;;;10.95;7.25;;;;;;;15.59;83.61;101021.63;5074721;28;20333;-63
2021/10/20 00:03:05;;;;;;;11.27;6.70;;;;;;;15.60;83.45;101019.78;5071210;28;20035;-61
2021/10/20 00:05:30;;;;;;;9.27;6.57;;;;;;;15.58;82.83;101017.22;5074204;28;20036;-62
2021/10/20 00:07:56;;;;;;;12.00;6.72;;;;;;;15.57;83.07;101012.84;5074656;28;20035;-62
2021/10/20 00:10:22;;;;;;;11.73;6.80;;;;;;;15.56;82.78;101006.66;5074508;28;20594;-61
2021/10/20 00:12:49;;;;;;;10.15;7.20;;;;;;;15.56;82.78;101006.66;5074010;28;20103;-62
2021/10/20 00:15:18;;;;;;;10.45;6.57;;;;;;;15.58;82.77;100990.53;5070623;28;20111;-63
2021/10/20 00:17:44;;;;;;;10.73;6.80;;;;;;;15.54;82.63;100986.34;5074598;28;20020;-62
2021/10/20 00:20:14;;;;;;;11.10;6.88;;;;;;;15.55;82.42;100990.75;5074402;28;20388;-62
2021/10/20 00:22:40;;;;;;;10.35;6.40;;;;;;;15.56;82.29;100990.63;5074526;28;20039;-62
2021/10/20 00:25:07;;;;;;;11.18;7.18;;;;;;;15.52;82.46;100974.91;5070670;28;20032;-61
2021/10/20 00:27:32;;;;;;;10.40;6.90;;;;;;;15.49;82.58;100978.63;5073954;28;20064;-62
2021/10/20 00:29:58;;;;;;;11.77;6.90;;;;;;;15.50;82.69;100976.81;5073957;28;20094;-62
2021/10/20 00:32:23;;;;;;;11.98;7.20;;;;;;;15.54;81.61;100970.34;5073920;28;20024;-62
2021/10/20 00:34:49;;;;;;;11.73;7.30;;;;;;;15.59;81.69;100968.22;5068052;28;20028;-60
2021/10/20 00:37:14;;;;;;;10.48;6.68;;;;;;;15.68;81.08;100970.31;5066199;28;20078;-62
2021/10/20 00:39:40;;;;;;;15.20;7.55;;;;;;;15.71;80.65;100971.91;5074078;28;20477;-63
2021/10/20 00:42:05;;;;;;;12.25;7.80;;;;;;;15.72;80.41;100952.28;5074189;28;20090;-63
2021/10/20 00:44:47;;;;;;;13.18;7.30;;;;;;;15.68;80.66;100945.44;5073630;28;20447;-62
2021/10/20 00:47:13;;;;;;;11.50;6.75;;;;;;;15.69;80.31;100944.44;5070543;28;20029;-62
2021/10/20 00:49:38;;;;;;;10.27;7.45;;;;;;;15.75;79.60;100957.41;5073631;28;20043;-62
2021/10/20 00:52:03;;;;;;;11.27;6.95;;;;;;;15.76;79.53;100952.94;5073624;28;20031;-62
2021/10/20 00:54:29;;;;;;;11.68;7.70;;;;;;;15.79;79.31;100953.56;5073732;28;20127;-63
2021/10/20 00:56:55;;;;;;;11.68;7.65;;;;;;;15.78;79.39;100948.34;5070077;28;20086;-63
2021/10/20 00:59:20;;;;;;;13.00;7.85;;;;;;;15.79;79.34;100944.72;5073475;28;20023;-62
2021/10/20 01:01:45;;;;;;;12.98;8.20;;;;;;;15.83;78.47;100933.78;5073523;28;20485;-63
2021/10/20 01:04:11;;;;;;;12.60;8.15;;;;;;;15.85;78.49;100947.88;5073743;28;20122;-62
2021/10/20 01:06:37;;;;;;;11.23;7.80;;;;;;;15.84;78.16;100935.50;5072170;28;20052;-62
2021/10/20 01:09:03;;;;;;;11.32;7.20;;;;;;;15.80;78.48;100917.91;5071556;28;20044;-62
2021/10/20 01:11:28;;;;;;;12.73;7.78;;;;;;;15.81;78.62;100911.66;5073464;28;20032;-62
2021/10/20 01:13:54;;;;;;;13.13;7.95;;;;;;;15.85;78.14;100898.97;5073215;28;20411;-60
2021/10/20 01:16:19;;;;;;;14.48;7.93;;;;;;;15.86;77.69;100917.53;5072843;28;20098;-62
2021/10/20 01:18:45;;;;;;;13.38;8.18;;;;;;;15.83;78.24;100922.22;5069759;28;20091;-62
2021/10/20 01:21:17;;;;;;;11.07;8.02;;;;;;;15.85;77.91;100920.31;5073327;28;20016;-62
2021/10/20 01:23:45;;;;;;;12.82;8.45;;;;;;;15.82;78.14;100923.19;5072673;28;20392;-62
2021/10/20 01:26:10;;;;;;;12.52;8.57;;;;;;;15.83;78.12;100917.75;5073415;28;20108;-62
2021/10/20 01:28:35;;;;;;;12.63;8.07;;;;;;;15.82;78.00;100910.69;5069234;28;20108;-62
2021/10/20 01:31:01;;;;;;;14.38;8.70;;;;;;;15.84;77.81;100916.81;5072751;28;20611;-62
2021/10/20 01:33:26;;;;;;;12.35;8.27;;;;;;;15.83;77.09;100909.75;5073234;28;20475;-62
2021/10/20 01:35:52;;;;;;;13.15;7.55;;;;;;;15.85;77.26;100906.97;5072984;28;20028;-63
2021/10/20 01:38:17;;;;;;;12.20;8.10;;;;;;;15.81;77.55;100908.09;5069685;28;20078;-61
2021/10/20 01:40:42;;;;;;;14.98;9.18;;;;;;;15.82;77.28;100915.16;5072529;28;20059;-62
2021/10/20 01:43:07;;;;;;;12.63;8.65;;;;;;;15.82;77.14;100901.81;5073035;28;20218;-62
2021/10/20 01:45:33;;;;;;;14.98;8.57;;;;;;;15.84;76.65;100908.78;5072524;28;20384;-62
2021/10/20 01:47:58;;;;;;;14.75;8.65;;;;;;;15.84;76.49;100895.44;5068891;28;20028;-62
2021/10/20 01:50:24;;;;;;;15.63;8.80;;;;;;;15.79;77.03;100908.19;5072652;28;20021;-63
2021/10/20 01:52:49;;;;;;;14.07;8.52;;;;;;;15.76;77.00;100903.06;5072895;28;20020;-62
2021/10/20 01:55:16;;;;;;;14.35;8.63;;;;;;;15.77;77.23;100898.56;5072549;28;20020;-63
2021/10/20 01:57:42;;;;;;;17.83;9.13;;;;;;;15.78;76.71;100885.13;5070902;28;20124;-62
2021/10/20 02:00:08;;;;;;;17.42;9.13;;;;;;;15.80;76.60;100875.19;5058249;28;20020;-61
2021/10/20 02:02:34;;;;;;;12.63;8.57;;;;;;;15.82;76.19;100865.31;5052189;28;20473;-62
2021/10/20 02:04:59;;;;;;;16.73;8.80;;;;;;;15.80;76.14;100858.31;5052533;28;20100;-62
2021/10/20 02:07:26;;;;;;;16.42;8.73;;;;;;;15.82;76.32;100840.41;5052490;28;20048;-62
2021/10/20 02:09:51;;;;;;;16.00;9.18;;;;;;;15.78;76.15;100854.88;5051793;28;20043;-62
2021/10/20 02:12:17;;;;;;;15.10;8.88;;;;;;;15.80;75.65;100856.50;5052271;28;20032;-62
2021/10/20 02:14:42;;;;;;;12.38;8.38;;;;;;;15.76;75.77;100844.31;5052616;28;20064;-62
2021/10/20 02:17:07;;;;;;;14.10;8.40;;;;;;;15.76;75.89;100846.16;5052258;28;20461;-63
2021/10/20 02:19:33;;;;;;;13.00;8.43;;;;;;;15.72;75.93;100835.66;5054054;28;20028;-61
2021/10/20 02:22:01;;;;;;;15.60;9.70;;;;;;;15.71;75.66;100841.09;5052559;28;20028;-61
2021/10/20 02:24:26;;;;;;;18.45;8.65;;;;;;;15.76;75.78;100835.47;5052391;28;20029;-61
2021/10/20 02:26:51;;;;;;;13.85;8.88;;;;;;;15.80;75.00;100834.28;5052144;28;20060;-63
2021/10/20 02:29:17;;;;;;;17.00;8.85;;;;;;;15.77;74.80;100832.69;5052187;28;20060;-62
2021/10/20 02:31:46;;;;;;;13.43;8.15;;;;;;;15.75;75.30;100818.56;5053512;28;20025;-62
2021/10/20 02:34:19;;;;;;;16.15;8.30;;;;;;;15.74;75.13;100827.53;5051972;28;20469;-62
2021/10/20 02:36:45;;;;;;;13.70;8.75;;;;;;;15.70;75.59;100821.56;5055636;28;20106;-62
2021/10/20 02:39:10;;;;;;;18.10;9.57;;;;;;;15.66;75.69;100817.38;5056391;28;20064;-61
2021/10/20 02:41:36;;;;;;;13.20;8.25;;;;;;;15.69;75.42;100803.84;5057785;28;20032;-62
2021/10/20 02:44:03;;;;;;;14.82;8.35;;;;;;;15.71;75.23;100812.56;5056293;28;20504;-63
2021/10/20 02:46:29;;;;;;;14.07;8.73;;;;;;;15.68;75.23;100803.94;5065399;28;20024;-62
2021/10/20 02:48:54;;;;;;;17.45;9.15;;;;;;;15.72;74.97;100784.09;5075629;28;20025;-60
2021/10/20 02:51:20;;;;;;;13.75;9.23;;;;;;;15.72;75.28;100800.09;5072347;28;20025;-61
2021/10/20 02:53:45;;;;;;;15.35;9.48;;;;;;;15.67;74.91;100781.72;5075963;28;20376;-61
2021/10/20 02:56:10;;;;;;;14.25;9.45;;;;;;;15.70;74.81;100791.34;5076146;28;20078;-62
2021/10/20 02:58:35;;;;;;;14.18;9.18;;;;;;;15.67;74.88;100787.06;5076005;28;20067;-63
2021/10/20 03:01:01;;;;;;;13.82;9.18;;;;;;;15.68;75.31;100772.75;5059511;28;20033;-63
2021/10/20 03:03:26;;;;;;;16.38;9.25;;;;;;;15.65;74.85;100780.97;5070663;28;20025;-62
2021/10/20 03:05:51;;;;;;;13.65;9.07;;;;;;;15.67;75.00;100775.53;5075759;28;20532;-63
2021/10/20 03:08:17;;;;;;;16.10;8.95;;;;;;;15.66;75.03;100774.66;5075882;28;20028;-63
2021/10/20 03:10:42;;;;;;;14.45;9.80;;;;;;;15.72;74.31;100778.75;5075855;28;20032;-62
2021/10/20 03:13:08;;;;;;;13.43;9.85;;;;;;;15.76;74.45;100769.56;5072294;28;20016;-62
2021/10/20 03:15:33;;;;;;;14.95;9.70;;;;;;;15.82;73.89;100768.31;5075813;28;20028;-62
2021/10/20 03:17:59;;;;;;;17.08;9.57;;;;;;;15.90;72.97;100755.31;5075612;28;20033;-63
2021/10/20 03:20:25;;;;;;;16.60;10.02;;;;;;;15.92;73.14;100766.75;5075090;28;20354;-63
2021/10/20 03:22:50;;;;;;;19.13;10.68;;;;;;;15.96;72.88;100759.34;5073662;28;20024;-63
2021/10/20 03:25:15;;;;;;;16.05;10.45;;;;;;;16.03;71.77;100758.81;5073260;28;20035;-62
2021/10/20 03:27:48;;;;;;;15.48;10.27;;;;;;;16.05;71.46;100769.44;5075514;28;20060;-63
2021/10/20 03:30:16;;;;;;;16.83;10.75;;;;;;;16.10;71.94;100761.06;5075134;28;20115;-63
2021/10/20 03:32:42;;;;;;;14.85;10.02;;;;;;;16.10;71.91;100774.44;5075586;28;20036;-63
2021/10/20 03:35:09;;;;;;;18.13;10.35;;;;;;;16.07;72.13;100761.31;5071118;28;20074;-63
2021/10/20 03:37:34;;;;;;;17.75;10.20;;;;;;;16.02;72.41;100753.59;5075235;28;20062;-63
2021/10/20 03:40:01;;;;;;;14.02;9.82;;;;;;;15.98;72.53;100758.28;5075482;28;20071;-62
2021/10/20 03:42:26;;;;;;;16.55;9.75;;;;;;;15.96;72.66;100752.22;5075407;28;20016;-63
2021/10/20 03:44:51;;;;;;;17.83;9.98;;;;;;;16.01;72.36;100754.56;5069264;28;20048;-63
2021/10/20 03:47:19;;;;;;;15.98;9.68;;;;;;;15.95;73.05;100747.00;5074303;28;20036;-63
2021/10/20 03:49:45;;;;;;;14.32;9.65;;;;;;;15.96;73.26;100746.00;5074726;28;20040;-61
2021/10/20 03:52:11;;;;;;;13.52;9.55;;;;;;;15.94;73.45;100739.94;5075050;28;20469;-63
2021/10/20 03:54:36;;;;;;;16.10;8.95;;;;;;;15.87;73.74;100740.34;5073721;28;20039;-62
2021/10/20 03:57:01;;;;;;;16.00;9.40;;;;;;;15.85;74.27;100747.59;5072671;28;20047;-63
2021/10/20 03:59:27;;;;;;;17.65;9.82;;;;;;;15.83;74.53;100744.19;5074789;28;20090;-63
2021/10/20 04:01:52;;;;;;;17.15;9.00;;;;;;;15.81;74.84;100731.88;5074652;28;20029;-63
2021/10/20 04:04:17;;;;;;;12.57;9.02;;;;;;;15.85;74.34;100718.22;5074628;28;20150;-62
2021/10/20 04:06:43;;;;;;;14.23;9.13;;;;;;;15.84;74.89;100724.56;5070737;28;20131;-62
2021/10/20 04:09:08;;;;;;;15.23;9.85;;;;;;;15.85;74.81;100704.88;5073025;28;20032;-63
2021/10/20 04:11:33;;;;;;;14.43;9.30;;;;;;;15.95;74.49;100675.72;5074601;28;20021;-63
2021/10/20 04:13:58;;;;;;;14.90;9.10;;;;;;;15.98;74.41;100706.69;5074654;28;20075;-63
2021/10/20 04:16:24;;;;;;;13.70;9.18;;;;;;;16.02;74.72;100708.19;5072146;28;20129;-62
2021/10/20 04:18:49;;;;;;;13.75;9.02;;;;;;;16.10;74.35;100700.50;5072555;28;20033;-63
2021/10/20 04:21:14;;;;;;;16.13;8.98;;;;;;;16.15;73.78;100706.38;5074257;28;20028;-63
2021/10/20 04:23:40;;;;;;;13.30;8.77;;;;;;;16.17;73.71;100688.41;5074569;28;20020;-63
2021/10/20 04:26:05;;;;;;;18.40;9.63;;;;;;;16.19;73.87;100682.97;5074140;28;20029;-63
2021/10/20 04:28:30;;;;;;;13.80;9.02;;;;;;;16.21;73.77;100686.38;5071920;28;20021;-61
2021/10/20 04:30:56;;;;;;;13.55;9.27;;;;;;;16.29;73.48;100685.84;5072282;28;20076;-63
2021/10/20 04:33:21;;;;;;;13.82;9.05;;;;;;;16.37;73.30;100686.16;5074181;28;20025;-61
2021/10/20 04:35:47;;;;;;;17.52;9.88;;;;;;;16.28;76.43;100679.66;5073652;28;20025;-63
2021/10/20 04:38:13;;;;;;;16.90;10.32;;;;;;;16.06;78.03;100680.28;5072299;28;20031;-62
2021/10/20 04:40:38;;;;;;;15.68;10.32;;;;;;;15.84;80.02;100694.31;5067773;28;20029;-62
2021/10/20 04:43:03;;;;;;;15.70;10.43;;;;;;;15.67;81.76;100690.13;5053630;28;20057;-62
2021/10/20 04:45:29;;;;;;;17.50;10.75;;;;;;;15.46;84.10;100682.63;5053535;28;20021;-61
2021/10/20 04:47:54;;;;;;;16.98;11.30;;;;;;;15.22;85.03;100696.63;5053767;28;20029;-62
2021/10/20 04:50:20;;;;;;;19.33;11.75;;;;;;;15.06;86.92;100696.81;5055696;28;20025;-62
2021/10/20 04:52:45;;;;;;;18.30;12.13;;;;;;;14.95;87.54;100699.34;5053346;28;20067;-62
2021/10/20 04:55:10;;;;;;;18.75;11.95;;;;;;;14.88;88.26;100687.34;5053980;28;20036;-62
2021/10/20 04:57:36;;;;;;;21.77;12.05;;;;;;;14.81;88.83;100689.56;5052899;28;20079;-62
2021/10/20 05:00:04;;;;;;;22.80;12.52;;;;;;;14.76;89.07;100683.69;5054774;28;20033;-62
2021/10/20 05:02:35;;;;;;;20.15;12.23;;;;;;;14.74;89.44;100682.91;5054300;28;20033;-62
2021/10/20 05:05:01;;;;;;;21.13;12.48;;;;;;;14.72;89.78;100690.16;5053619;28;20013;-60
2021/10/20 05:07:26;;;;;;;20.40;12.68;;;;;;;14.74;89.63;100682.91;5053074;28;20025;-62
2021/10/20 05:09:52;;;;;;;20.70;12.95;;;;;;;14.74;89.76;100683.78;5054001;28;20056;-62
2021/10/20 05:12:17;;;;;;;23.92;13.18;;;;;;;14.79;89.08;100672.81;5056600;28;20511;-62
2021/10/20 05:14:42;;;;;;;20.52;12.23;;;;;;;14.81;88.96;100659.38;5053529;28;20116;-62
2021/10/20 05:17:07;;;;;;;24.67;12.50;;;;;;;14.88;87.63;100645.53;5053527;28;20520;-62
2021/10/20 05:19:33;;;;;;;21.17;11.57;;;;;;;14.96;86.68;100647.72;5053098;28;20053;-63
2021/10/20 05:21:59;;;;;;;20.25;12.05;;;;;;;14.98;86.99;100639.63;5052413;28;20440;-62
2021/10/20 05:24:24;;;;;;;29.25;13.50;;;;;;;15.00;87.04;100640.34;5056054;28;20029;-62
2021/10/20 05:26:54;;;;;;;21.08;11.82;;;;;;;14.98;87.39;100645.78;5052731;28;20032;-62
2021/10/20 05:29:19;;;;;;;19.13;11.05;;;;;;;14.97;87.31;100617.41;5052991;28;20079;-62
2021/10/20 05:31:44;;;;;;;16.67;10.73;;;;;;;15.00;86.73;100627.88;5055069;28;20057;-62
2021/10/20 05:34:10;;;;;;;17.30;10.60;;;;;;;15.03;86.99;100627.66;5053219;28;20025;-61
2021/10/20 05:36:35;;;;;;;22.40;10.60;;;;;;;15.08;86.46;100632.72;5052651;28;20021;-62
2021/10/20 05:39:00;;;;;;;16.23;10.35;;;;;;;15.16;86.26;100622.34;5052541;28;20032;-62
2021/10/20 05:41:26;;;;;;;18.08;10.93;;;;;;;15.19;85.88;100595.50;5052314;28;20100;-61
2021/10/20 05:43:51;;;;;;;20.45;10.25;;;;;;;15.24;85.86;100609.38;5054752;28;20029;-62
2021/10/20 05:46:16;;;;;;;18.75;10.75;;;;;;;15.27;86.01;100597.63;5052543;28;20048;-62
2021/10/20 05:48:41;;;;;;;20.42;11.75;;;;;;;15.27;86.69;100584.31;5052888;28;20036;-62
2021/10/20 05:51:07;;;;;;;17.70;10.00;;;;;;;15.29;85.75;100571.69;5052388;28;20032;-63
2021/10/20 05:53:32;;;;;;;14.55;9.63;;;;;;;15.28;86.56;100569.13;5060907;28;20036;-61
2021/10/20 05:55:57;;;;;;;15.75;10.32;;;;;;;15.31;86.89;100566.28;5065309;28;20029;-62
2021/10/20 05:58:23;;;;;;;18.13;11.27;;;;;;;15.30;86.78;100573.41;5064469;28;20032;-60
2021/10/20 06:00:48;;;;;;;19.67;11.27;;;;;;;15.34;86.82;100547.38;5052214;28;20083;-59
2021/10/20 06:03:13;;;;;;;16.33;10.48;;;;;;;15.40;86.86;100557.63;5052468;28;20029;-61
2021/10/20 06:05:39;;;;;;;16.33;10.68;;;;;;;15.45;86.75;100544.81;5071530;28;20021;-60
2021/10/20 06:08:04;;;;;;;29.60;12.80;;;;;;;15.49;86.60;100542.78;5049299;28;20165;-60
2021/10/20 06:10:30;;;;;;;21.10;11.43;;;;;;;15.52;86.48;100559.41;5051686;28;20110;-60
2021/10/20 06:12:55;;;;;;;17.95;11.13;;;;;;;15.55;86.04;100569.06;5052479;28;20049;-60
2021/10/20 06:15:22;;;;;;;16.42;10.00;;;;;;;15.56;85.60;100541.38;5052228;28;20024;-60
2021/10/20 06:17:48;;;;;;;14.25;9.27;;;;;;;15.59;84.35;100535.84;5051856;28;20092;-61
2021/10/20 06:20:14;;;;;;;13.82;8.50;;;;;;;15.62;83.72;100532.94;5066229;28;20036;-62
2021/10/20 06:22:41;;;;;;;13.43;8.15;;;;;;;15.61;83.46;100538.38;5052181;28;20026;-63
2021/10/20 06:25:08;;;;;;;16.25;8.40;;;;;;;15.62;83.49;100545.44;5050114;28;20098;-61
2021/10/20 06:27:34;;;;;;;17.30;8.27;;;;;;;15.58;83.55;100558.16;5054964;28;20028;-64
2021/10/20 06:29:59;;;;;;;12.77;8.23;;;;;;;15.50;83.60;100550.69;5051529;28;20107;-63
2021/10/20 06:32:24;;;;;;;13.10;8.45;;;;;;;15.35;85.16;100546.41;5052390;28;20079;-62
2021/10/20 06:34:50;;;;;;;14.00;8.52;;;;;;;15.22;86.35;100541.09;5052294;28;20033;-61
2021/10/20 06:37:15;;;;;;;15.55;8.80;;;;;;;15.05;88.04;100560.88;5051746;28;20029;-62
2021/10/20 06:39:40;;;;;;;18.65;9.07;;;;;;;14.90;89.65;100565.47;5051790;28;20025;-62
2021/10/20 06:42:06;;;;;;;16.48;9.65;;;;;;;14.77;91.02;100565.44;5051743;28;20029;-62
2021/10/20 06:44:31;;;;;;;18.20;9.18;;;;;;;14.63;91.78;100537.00;5052868;28;20507;-63
2021/10/20 06:46:57;;;;;;;13.13;9.05;;;;;;;14.56;92.36;100541.03;5051979;28;20035;-63
2021/10/20 06:49:22;;;;;;;17.42;9.93;;;;;;;14.47;93.31;100549.66;5052135;28;20028;-61
2021/10/20 06:51:47;;;;;;;16.75;10.35;;;;;;;14.38;94.06;100527.13;5051215;28;20033;-61
2021/10/20 06:54:22;;;;;;;13.82;9.82;;;;;;;14.32;94.88;100503.56;5052063;28;20036;-62
2021/10/20 06:56:49;;;;;;;16.02;9.55;;;;;;;14.23;95.13;100481.91;5051183;28;20037;-62
2021/10/20 06:59:15;;;;;;;16.52;9.77;;;;;;;14.22;95.83;100495.31;5052248;28;20083;-62
2021/10/20 07:01:40;;;;;;;15.45;10.05;;;;;;;14.20;95.91;100487.41;5051832;28;20033;-61
2021/10/20 07:04:07;;;;;;;15.00;9.60;;;;;;;14.20;95.88;100470.59;5052034;28;20083;-62
2021/10/20 07:06:32;;;;;;;17.15;9.68;;;;;;;14.17;96.69;100450.34;5049165;28;20036;-60
2021/10/20 07:08:57;;;;;;;20.42;9.88;;;;;;;14.17;96.81;100439.69;5051853;28;20033;-62
2021/10/20 07:11:23;;;;;;;15.30;10.10;;;;;;;14.16;96.98;100429.16;5051362;28;20033;-63
2021/10/20 07:13:49;;;;;;;16.02;10.23;;;;;;;14.14;97.14;100399.94;5071305;28;20099;-61
2021/10/20 07:16:15;;;;;;;16.30;10.27;;;;;;;14.12;97.60;100391.22;5072350;28;20047;-62
2021/10/20 07:18:41;;;;;;;15.52;10.90;;;;;;;14.09;97.66;100372.78;5071907;28;20060;-62
2021/10/20 07:21:06;;;;;;;17.05;11.40;;;;;;;14.09;98.09;100370.13;5072186;28;20028;-62
2021/10/20 07:23:31;;;;;;;20.13;10.48;;;;;;;14.11;97.80;100360.22;5073522;28;20066;-61
2021/10/20 07:25:57;;;;;;;15.35;9.38;;;;;;;14.09;97.91;100373.66;5075093;28;20112;-63
2021/10/20 07:28:22;;;;;;;14.05;10.10;;;;;;;14.14;97.36;100394.63;5075424;28;20040;-61
2021/10/20 07:30:47;;;;;;;16.60;10.45;;;;;;;14.13;97.82;100392.06;5075455;28;20037;-61
2021/10/20 07:33:13;;;;;;;16.40;10.48;;;;;;;14.14;97.93;100404.44;5056421;28;20032;-61
2021/10/20 07:35:38;;;;;;;15.90;9.88;;;;;;;14.16;97.98;100394.53;5054823;28;20492;-61
2021/10/20 07:38:04;;;;;;;19.23;10.18;;;;;;;14.18;98.05;100388.16;5055048;28;20025;-61
2021/10/20 07:40:29;;;;;;;16.52;9.95;;;;;;;14.25;97.89;100401.91;5054642;28;20052;-61
2021/10/20 07:42:54;;;;;;;14.18;10.05;;;;;;;14.24;97.47;100392.19;5054611;28;20040;-60
2021/10/20 07:45:20;;;;;;;14.88;9.00;;;;;;;14.31;97.21;100400.63;5054211;28;20546;-60
2021/10/20 07:47:49;;;;;;;13.95;9.07;;;;;;;14.31;97.06;100403.28;5055856;28;20013;-61
2021/10/20 07:50:17;;;;;;;15.20;9.68;;;;;;;14.33;97.11;100394.25;5044712;28;20116;-62
2021/10/20 07:52:47;;;;;;;13.63;8.70;;;;;;;14.41;96.98;100399.03;5055749;28;20053;-61
2021/10/20 07:55:13;;;;;;;13.07;8.80;;;;;;;14.48;95.92;100383.53;5054505;28;20047;-61
2021/10/20 07:57:38;;;;;;;13.95;8.40;;;;;;;14.47;95.96;100382.66;5054186;28;20021;-61
2021/10/20 08:00:05;;;;;;;13.20;9.00;;;;;;;14.52;95.94;100409.81;5059196;28;20423;-62
2021/10/20 08:02:31;;;;;;;12.15;8.48;;;;;;;14.77;95.46;100416.19;5044197;28;20041;-60
2021/10/20 08:04:56;;;;;;;11.13;7.78;;;;;;;14.98;94.26;100416.47;5060001;28;20071;-62
2021/10/20 08:07:22;;;;;;;10.55;7.80;;;;;;;15.18;93.52;100414.22;5055691;28;20100;-61
2021/10/20 08:09:48;;;;;;;13.70;8.30;;;;;;;15.28;92.97;100419.75;5062579;28;20091;-60
2021/10/20 08:12:16;;;;;;;12.32;7.88;;;;;;;15.27;92.30;100400.25;5056265;28;20037;-61
2021/10/20 08:14:42;;;;;;;14.10;8.65;;;;;;;15.27;92.12;100424.25;5066742;28;20071;-60
2021/10/20 08:17:08;;;;;;;10.75;7.60;;;;;;;15.21;92.09;100406.84;5054825;28;20052;-61
2021/10/20 08:19:34;;;;;;;14.10;8.63;;;;;;;15.31;92.96;100411.56;5058648;28;20039;-60
2021/10/20 08:21:59;;;;;;;10.57;7.63;;;;;;;15.39;91.40;100404.69;5072300;28;20111;-60
2021/10/20 08:24:25;;;;;;;14.38;7.97;;;;;;;15.44;91.17;100409.69;5071543;28;20067;-61
2021/10/20 08:26:51;;;;;;;14.18;8.32;;;;;;;15.56;90.51;100416.81;5074080;28;20035;-61
2021/10/20 08:29:16;;;;;;;13.55;8.68;;;;;;;15.51;90.91;100405.63;5054977;28;20053;-58
2021/10/20 08:31:42;;;;;;;14.77;8.55;;;;;;;15.56;90.64;100391.94;5073569;28;20103;-61
2021/10/20 08:34:07;;;;;;;14.20;9.00;;;;;;;15.76;89.70;100386.97;5073999;28;20077;-60
2021/10/20 08:36:32;;;;;;;12.77;7.88;;;;;;;16.05;89.40;100390.16;5045097;28;20082;-60
2021/10/20 08:38:58;;;;;;;17.25;8.50;;;;;;;16.59;87.18;100391.41;5057327;28;20159;-60
2021/10/20 08:41:24;;;;;;;14.20;8.00;;;;;;;16.68;85.71;100377.31;5057102;28;20191;-61
2021/10/20 08:43:49;;;;;;;13.60;8.50;;;;;;;17.14;83.21;100382.72;5052840;28;20388;-61
2021/10/20 08:46:21;;;;;;;14.50;8.20;;;;;;;17.11;83.08;100370.44;5053682;28;20029;-60
2021/10/20 08:48:46;;;;;;;10.10;7.43;;;;;;;17.28;83.11;100370.91;5069027;28;20041;-60
2021/10/20 08:51:13;;;;;;;13.52;8.27;;;;;;;17.58;80.33;100369.38;5072023;28;20021;-61
2021/10/20 08:53:39;;;;;;;11.00;7.40;;;;;;;17.70;80.57;100379.09;5058021;28;20033;-60
2021/10/20 08:56:04;;;;;;;11.73;7.75;;;;;;;17.55;81.70;100380.34;5053761;28;20100;-61
2021/10/20 08:58:30;;;;;;;12.88;8.88;;;;;;;17.38;81.41;100385.25;5060780;28;20472;-61
2021/10/20 09:00:56;;;;;;;13.13;8.02;;;;;;;17.08;82.52;100385.88;5061819;28;20032;-61
2021/10/20 09:03:21;;;;;;;12.65;7.82;;;;;;;16.83;83.33;100377.94;5067942;28;20028;-61
2021/10/20 09:05:47;;;;;;;13.35;8.90;;;;;;;16.57;85.19;100363.91;5073823;28;20029;-61
2021/10/20 09:08:13;;;;;;;14.20;8.63;;;;;;;16.54;85.40;100370.38;5071022;28;20032;-60
2021/10/20 09:10:39;;;;;;;20.80;9.27;;;;;;;16.49;85.93;100348.50;5073727;28;20028;-61
2021/10/20 09:13:04;;;;;;;12.20;8.27;;;;;;;16.58;84.82;100359.44;5069835;28;20078;-61
2021/10/20 09:15:35;;;;;;;11.77;7.90;;;;;;;16.54;84.79;100354.31;5055705;28;20037;-60
2021/10/20 09:18:04;;;;;;;13.98;8.80;;;;;;;16.49;85.36;100342.31;5053430;28;20087;-61
2021/10/20 09:20:35;;;;;;;12.63;8.57;;;;;;;16.52;85.75;100332.22;5058542;28;20013;-61
2021/10/20 09:23:11;;;;;;;14.27;7.85;;;;;;;16.50;85.64;100344.84;5071254;28;20024;-61
2021/10/20 09:25:44;;;;;;;11.13;7.38;;;;;;;16.58;85.00;100341.56;5072891;28;20083;-61
2021/10/20 09:28:20;;;;;;;13.57;7.68;;;;;;;16.67;84.55;100348.03;5066469;28;20114;-61
2021/10/20 09:30:46;;;;;;;16.90;8.63;;;;;;;16.64;84.41;100332.25;5056597;28;20063;-60
2021/10/20 09:33:12;;;;;;;13.48;7.05;;;;;;;16.73;84.44;100346.69;5052894;28;20044;-60
2021/10/20 09:35:38;;;;;;;9.65;6.60;;;;;;;16.86;83.51;100345.59;5067057;28;20219;-61
2021/10/20 09:38:04;;;;;;;9.48;6.95;;;;;;;16.95;83.33;100321.81;5072634;28;20452;-61
2021/10/20 09:40:42;;;;;;;9.43;6.80;;;;;;;16.91;83.95;100339.09;5061486;28;20032;-61
2021/10/20 09:43:09;;;;;;;9.70;6.90;;;;;;;16.90;83.32;100332.84;5052830;28;20544;-62
2021/10/20 09:45:40;;;;;;;14.40;7.38;;;;;;;16.81;83.45;100345.09;5061096;28;20051;-62
2021/10/20 09:48:16;;;;;;;9.55;6.55;;;;;;;16.76;84.35;100333.09;5065055;28;20025;-61
2021/10/20 09:50:53;;;;;;;10.55;6.88;;;;;;;16.67;83.80;100310.59;5061948;28;20063;-62
2021/10/20 09:53:18;;;;;;;10.70;6.75;;;;;;;16.73;84.66;100341.34;5072968;28;20034;-59
2021/10/20 09:55:44;;;;;;;12.00;7.18;;;;;;;16.68;84.14;100347.06;5063089;28;20021;-61
2021/10/20 09:58:14;;;;;;;11.65;7.28;;;;;;;16.64;84.78;100335.75;5053166;28;20029;-62
2021/10/20 10:00:41;;;;;;;14.75;7.10;;;;;;;16.81;84.11;100315.69;5060378;28;20028;-62
2021/10/20 10:03:06;;;;;;;9.95;6.50;;;;;;;16.97;83.47;100322.53;5068696;28;20021;-62
2021/10/20 10:05:32;;;;;;;11.07;7.18;;;;;;;16.95;83.38;100325.31;5052442;28;20025;-60
2021/10/20 10:07:58;;;;;;;9.35;6.40;;;;;;;17.01;83.01;100340.06;5053339;28;20044;-60
2021/10/20 10:10:24;;;;;;;9.13;6.05;;;;;;;17.14;82.29;100331.88;5036760;28;20558;-61
2021/10/20 10:12:57;;;;;;;12.57;6.90;;;;;;;17.15;82.09;100329.09;5052758;28;20032;-60
2021/10/20 10:15:24;;;;;;;10.48;6.30;;;;;;;17.16;82.57;100354.00;5069877;28;20032;-60
2021/10/20 10:17:53;;;;;;;9.20;6.22;;;;;;;17.17;82.07;100339.66;5070564;28;20504;-63
2021/10/20 10:20:21;;;;;;;11.55;6.20;;;;;;;17.15;82.07;100337.09;5072532;28;20067;-62
2021/10/20 10:22:48;;;;;;;10.88;6.45;;;;;;;17.16;82.45;100349.53;5072616;28;20043;-61
2021/10/20 10:25:14;;;;;;;10.35;6.28;;;;;;;17.17;82.56;100345.88;5072571;28;20460;-62
2021/10/20 10:28:00;;;;;;;9.63;6.10;;;;;;;17.33;81.98;100341.94;5054433;28;20104;-63
2021/10/20 10:30:25;;;;;;;10.57;6.60;;;;;;;17.41;81.45;100322.59;5038296;28;20535;-61
2021/10/20 10:32:57;;;;;;;10.75;6.93;;;;;;;17.41;80.80;100333.28;5054046;28;20041;-60
2021/10/20 10:35:31;;;;;;;8.93;5.70;;;;;;;17.39;80.93;100348.63;5064107;28;20040;-61
2021/10/20 10:38:03;;;;;;;9.60;6.18;;;;;;;17.26;81.59;100343.41;5065640;28;20116;-63
2021/10/20 10:40:32;;;;;;;13.18;7.28;;;;;;;17.23;82.04;100341.84;5072608;28;20036;-64
2021/10/20 10:43:04;;;;;;;10.77;6.05;;;;;;;17.24;82.28;100342.69;5070507;28;20043;-62
2021/10/20 10:45:29;;;;;;;11.05;5.70;;;;;;;17.28;81.54;100331.59;5072526;28;20031;-61
2021/10/20 10:48:08;;;;;;;8.95;5.80;;;;;;;17.28;81.42;100344.16;5071273;28;20025;-61
2021/10/20 10:50:46;;;;;;;14.50;6.70;;;;;;;17.18;81.90;100342.19;5060339;28;20411;-62
2021/10/20 10:53:30;;;;;;;10.30;6.15;;;;;;;17.14;81.91;100331.88;5070621;28;20056;-63
2021/10/20 10:56:09;;;;;;;11.52;6.22;;;;;;;17.00;82.59;100338.34;5072593;28;20027;-63
2021/10/20 10:58:53;;;;;;;11.43;6.53;;;;;;;16.97;82.88;100338.56;5065413;28;20021;-62
2021/10/20 11:01:48;;;;;;;12.48;6.35;;;;;;;16.93;83.01;100321.06;5054073;28;20127;-62
2021/10/20 11:04:21;;;;;;;11.07;5.78;;;;;;;16.96;82.20;100337.72;5063089;28;20031;-62
2021/10/20 11:06:48;;;;;;;12.50;5.80;;;;;;;17.04;81.96;100332.59;5075847;28;20047;-63
2021/10/20 11:09:20;;;;;;;8.55;5.40;;;;;;;17.16;81.28;100341.50;5075518;28;20511;-62
2021/10/20 11:11:47;;;;;;;9.60;5.70;;;;;;;17.16;81.28;100327.25;5075374;28;20578;-61
2021/10/20 11:14:14;;;;;;;11.63;5.68;;;;;;;17.26;80.86;100322.00;5074880;28;20021;-61